METAR Data
IDs: Format: Raw Decoded Include TAF

Data at: 2209 UTC 01 Dec 2021

LFBD 012200Z AUTO 23006KT 9999 ///CB 07/06 Q1008 TEMPO 27015G25KT 4000 SHRA